This is the latest recevied weather packets stored in our database for station/object NK7E-2. If no packets are shown the sender has not sent any weather packets the latest 1 day(s).
| Time | Temp. | Humidity | Pressure | Rain* | Wind** | Luminosity | Snow |
|---|---|---|---|---|---|---|---|
| 1836274391 | 26.67° C | 54% | 1026.1 hPa | 0 mm | 0.89 m/s, 203° | - | - |
| 1836274241 | 26.11° C | 56% | 1026.4 hPa | 0 mm | 3.58 m/s, 203° | - | - |
| 1778079916 | 16.11° C | 42% | 1022.2 hPa | 0 mm | 0.89 m/s, 225° | - | - |
| 1778079316 | 15.56° C | 43% | 1022 hPa | 0 mm | 0.89 m/s, 248° | - | - |
| 1778078715 | 15.56° C | 41% | 1022 hPa | 0 mm | 1.34 m/s, 270° | - | - |
| 1778078116 | 15.56° C | 42% | 1021.9 hPa | 0 mm | 0.45 m/s, 248° | - | - |
| 1778077515 | 15.56° C | 42% | 1021.8 hPa | 0 mm | 0.45 m/s, 248° | - | - |
| 1778076317 | 14.44° C | 46% | 1021.6 hPa | 0 mm | 0.45 m/s, 90° | - | - |
| 1778075717 | 13.89° C | 48% | 1021.5 hPa | 0 mm | 0.45 m/s, 90° | - | - |
| 1778075117 | 13.33° C | 50% | 1021.2 hPa | 0 mm | 0.45 m/s, 90° | - | - |
| 1778074517 | 12.22° C | 53% | 1021.4 hPa | 0 mm | 0.45 m/s, 90° | - | - |
| 1778073917 | 11.67° C | 55% | 1021.2 hPa | 0 mm | 0.45 m/s, 68° | - | - |
| 1778071517 | 11.11° C | 55% | 1020.7 hPa | 0 mm | 0.45 m/s, 45° | - | - |
| 1778069117 | 11.11° C | 53% | 1020.3 hPa | 0 mm | 0.45 m/s, 45° | - | - |
| 1778068517 | 11.67° C | 52% | 1020.6 hPa | 0 mm | 1.34 m/s, 45° | - | - |
| 1778067917 | 11.67° C | 52% | 1020.5 hPa | 0 mm | 0.89 m/s, 45° | - | - |
| 1778067317 | 11.67° C | 51% | 1020.5 hPa | 0 mm | 1.34 m/s, 45° | - | - |
| 1778066721 | 12.22° C | 51% | 1020.7 hPa | 0 mm | 1.34 m/s, 68° | - | - |
| 1778066117 | 12.22° C | 50% | 1020.7 hPa | 0 mm | 1.34 m/s, 68° | - | - |
| 1778065517 | 12.22° C | 51% | 1020.7 hPa | 0 mm | 1.34 m/s, 68° | - | - |
| 1778064917 | 12.22° C | 51% | 1020.7 hPa | 0 mm | 1.34 m/s, 68° | - | - |
| 1778064317 | 12.22° C | 50% | 1020.6 hPa | 0 mm | 1.79 m/s, 68° | - | - |
| 1778063717 | 12.22° C | 51% | 1020.6 hPa | 0 mm | 1.79 m/s, 68° | - | - |
| 1778063117 | 12.22° C | 51% | 1020.4 hPa | 0 mm | 1.79 m/s, 68° | - | - |
| 1778062517 | 12.22° C | 51% | 1020.3 hPa | 0 mm | 1.79 m/s, 68° | - | - |
* Rain latest hour (hover to see other rain measurements)
** Current wind speed in m/s (hover to see current wind gust speed)